Trenton, Kentucky
Current Conditions -  °F | °C
As of 4:52 AM on Thursday 27 Nov 2014 (Local Time) from KCKV Reporting Station
Overcast Overcast  
Wind Chill: 24°   Ceiling: 900
Heat Index: 35°   Visibility: 10mi
Dew Point: 33°   Wind: 20mph
Humidity: 92%   Direction: 340°NNW
Pressure: 30.25"   Gusts: NA
Location:  36.72°N, 87.26°W
Report Text: KCKV 271052Z AUTO 34017KT 10SM OVC009 02/01 A3025 RMK AO2 CIG 007V012 SLP247 T00170006
Loading
Personal Weather Stations






























Interactive Weather Map New forecast layout! Learn more

10-Day Weather Forecast

Advertisements
Track Severe Weather on mobile